Owings, Maryland
Current Conditions -  °F | °C
As of 2:58 AM on Saturday 25 Oct 2014 (Local Time) from KADW Reporting Station
Clear Clear  
Wind Chill: 52°   Ceiling: Unl
Heat Index: 52°   Visibility: 10mi
Dew Point: 38°   Wind: 8mph
Humidity: 60%   Direction: 300°WNW
Pressure: 29.95"   Gusts: NA
Location:  38.72°N, 76.6°W
Report Text: KADW 250658Z AUTO 30007KT 10SM CLR 11/04 A2995 RMK AO2 SLP148 T01100036 $
Loading
Personal Weather Stations






























Interactive Weather Map
Tropical Storm Tracking
New forecast layout! Learn more

10-Day Weather Forecast

Advertisements
Track Severe Weather on mobile